Ship Status Report: callsign VWFQ

sailwx.info

Track history (hours):
 
Tides and Currents Weather Stations Pressure Air Temp Water Temp Dewpoint Dewpoint Depression Visibility Wind Speed Wind Dir Waves Ship Positions

Callsign VWFQ (name unknown)

Last reported at 2018-May-20 18:17 UTC. Time now 2018-May-21 01:05 UTC.
Position N 13°06' E 080°18'.

Wind from 220 at 2 knots

Barometer 1005.6 mb
Air temperature 29.6 ° C

Date/timePositionNaut miles runAvg speedWind from/ knotsBaromVisibWave heightAir tempDewpointWater temp
2018-May-20 18:17N 13°06' E 080°18'0 0.0 220 / 21005.6 29.6
2018-May-20 15:17N 13°06' E 080°18'0 0.0 170 / 41005.1 30.0
2018-May-20 12:17N 13°06' E 080°18'0 0.0 180 / 61003.0 30.9
2018-May-20 08:47N 13°06' E 080°18'0 0.0 180 / 81003.5 31.7
2018-May-20 05:47N 13°06' E 080°18'0 0.0 180 / 61005.6 31.5
2018-May-20 03:17N 13°06' E 080°18'0 0.0 230 / 61005.6 32.1
2018-May-19 21:17N 13°06' E 080°18'0 0.0 220 / 41004.1 29.7
2018-May-19 18:17N 13°06' E 080°18'0 0.0 190 / 41005.3 29.4
2018-May-19 14:47N 13°06' E 080°18'0 0.0 180 / 61004.8 29.8
2018-May-19 12:17N 13°06' E 080°18'0 0.0 170 / 61002.6 31.0
2018-May-19 08:47N 13°06' E 080°18'0 0.0 180 / 81003.0 31.6
2018-May-19 05:47N 13°06' E 080°18'0 0.0 180 / 61004.8 31.5
2018-May-18 23:47N 13°06' E 080°18'0 0.0 210 / 41004.7 29.0
2018-May-18 21:17N 13°06' E 080°18'0 0.0 200 / 41004.3 29.5
2018-May-18 18:17N 13°06' E 080°18'0 0.0 200 / 61005.7 29.5
2018-May-18 15:17N 13°06' E 080°18'0 0.0 180 / 41005.6 29.8
2018-May-18 12:17N 13°06' E 080°18'0 0.0 180 / 41002.8 31.0
2018-May-18 08:47N 13°06' E 080°18'0 0.0 180 / 61003.9 31.5
2018-May-18 06:17N 13°06' E 080°18'0 0.0 190 / 81005.6 31.0
2018-May-18 03:17N 13°06' E 080°18'0 0.0 240 / 41006.5 31.3
2018-May-18 00:17N 13°06' E 080°18'0 0.0 210 / 21005.3 28.7
2018-May-17 21:17N 13°06' E 080°18'0 0.0 200 / 21005.1 29.6
2018-May-17 17:47N 13°06' E 080°18'0 0.0 190 / 61006.4 29.5
2018-May-17 12:17N 13°06' E 080°18'0 0.0 180 / 61003.7 31.3
2018-May-17 09:17N 13°06' E 080°18'0 0.0 180 / 81004.7 32.3
2018-May-17 06:17N 13°06' E 080°18'0 0.0 180 / 81006.1 31.2
2018-May-17 03:17N 13°06' E 080°18'0 0.0 180 / 61007.1 31.4
2018-May-17 00:17N 13°06' E 080°18'0 0.0 200 / 21005.4 28.8
2018-May-16 21:17N 13°06' E 080°18'0 0.0 190 / 21004.8 29.2
2018-May-16 15:17N 13°06' E 080°18'0 0.0 180 / 41005.8 29.8
2018-May-16 12:17N 13°06' E 080°18'0 0.0 180 / 81003.7 31.1
2018-May-16 09:17N 13°06' E 080°18'0 0.0 180 / 61004.6 32.0
2018-May-16 06:17N 13°06' E 080°18'0 0.0 180 / 81007.1 31.1
2018-May-16 03:17N 13°06' E 080°18'0 0.0 180 / 61007.4 31.6
2018-May-15 21:17N 13°06' E 080°18'0 0.0 240 / 21005.3 29.0
2018-May-15 18:17N 13°06' E 080°18'0 0.0 190 / 41006.4 29.4
2018-May-15 14:47N 13°06' E 080°18'0 0.0 170 / 41005.6 29.8
2018-May-15 12:17N 13°06' E 080°18'0 0.0 180 / 61004.5 30.6
2018-May-15 09:17N 13°06' E 080°18'0 0.0 160 / 41004.6 32.2
2018-May-15 06:17N 13°06' E 080°18'0 0.0 180 / 61007.7 32.0
2018-May-15 03:17N 13°06' E 080°18'0 0.0 260 / 41009.4 31.5
2018-May-15 00:17N 13°06' E 080°18'0 0.0 230 / 21007.0 29.0
2018-May-14 21:17N 13°06' E 080°18'0 0.0 230 / 21006.5 29.5
2018-May-14 18:17N 13°06' E 080°18'0 0.0 190 / 41008.2 29.6
2018-May-14 14:47N 13°06' E 080°18'0 0.0 170 / 41007.3 30.1
2018-May-14 12:17N 13°06' E 080°18'0 0.0 170 / 41005.1 31.6
2018-May-14 09:17N 13°06' E 080°18'0 0.0 160 / 61005.4 32.5
2018-May-14 06:17N 13°06' E 080°18'0 0.0 170 / 41008.6 32.2
2018-May-14 03:17N 13°06' E 080°18'0 0.0 230 / 61008.9 32.0
2018-May-14 00:17N 13°06' E 080°18'0 0.0 220 / 21007.1 28.7
2018-May-13 21:17N 13°06' E 080°18'0 0.0 220 / 41006.0 29.1
2018-May-13 17:47N 13°06' E 080°18'0 0.0 190 / 41008.0 29.2
2018-May-13 15:17N 13°06' E 080°18'0 0.0 190 / 41007.4 29.8
2018-May-13 12:17N 13°06' E 080°18'0 0.0 180 / 41005.2 30.5
2018-May-13 09:17N 13°06' E 080°18'0 0.0 180 / 61005.6 32.1
2018-May-13 06:17N 13°06' E 080°18'0 0.0 190 / 81007.6 32.3
2018-May-13 03:17N 13°06' E 080°18'0 0.0 220 / 61008.4 32.5
2018-May-13 00:17N 13°06' E 080°18'0 0.0 190 / 41006.3 29.2
2018-May-12 20:47N 13°06' E 080°18'0 0.0 200 / 41006.1 29.6
2018-May-12 17:47N 13°06' E 080°18'0 0.0 190 / 61007.7 29.5
2018-May-12 12:17N 13°06' E 080°18'0 0.0 180 / 81004.1 30.3
2018-May-12 09:17N 13°06' E 080°18'0 0.0 180 / 81005.2 32.1
2018-May-12 06:17N 13°06' E 080°18'0 0.0 180 / 101008.0 31.5
2018-May-12 03:17N 13°06' E 080°18'0 0.0 190 / 81009.2 30.9
2018-May-12 00:17N 13°06' E 080°18'0 0.0 190 / 61006.7 29.2
2018-May-11 21:17N 13°06' E 080°18'0 0.0 200 / 41006.3 29.7
2018-May-11 18:17N 13°06' E 080°18'0 0.0 190 / 61007.9 29.4
2018-May-11 15:17N 13°06' E 080°18'0 0.0 190 / 61006.7 29.5
2018-May-11 12:17N 13°06' E 080°18'0 0.0 180 / 81004.6 30.7
2018-May-11 06:17N 13°06' E 080°18'0 0.0 180 / 101008.3 30.9
2018-May-11 02:47N 13°06' E 080°18'0 0.0 200 / 41009.5 31.9
2018-May-11 00:17N 13°06' E 080°18'0 0.0 190 / 41007.7 29.0
2018-May-10 21:17N 13°06' E 080°18'0 0.0 190 / 61007.4 29.3
2018-May-10 18:17N 13°06' E 080°18'   190 / 61008.7 29.6
Track history (hours):
 
Tides and Currents Weather Stations Pressure Air Temp Water Temp Dewpoint Dewpoint Depression Visibility Wind Speed Wind Dir Waves Ship Positions

Callsign VWFQ (name unknown)

Last reported at 2018-May-20 18:17 UTC. Time now 2018-May-21 01:05 UTC.
Position N 13°06' E 080°18'.

Wind from 220 at 2 knots

Barometer 1005.6 mb
Air temperature 29.6 ° C

Date/timePositionNaut miles runAvg speedWind from/ knotsBaromVisibWave heightAir tempDewpointWater temp
2018-May-20 18:17N 13°06' E 080°18'0 0.0 220 / 21005.6 29.6
2018-May-20 15:17N 13°06' E 080°18'0 0.0 170 / 41005.1 30.0
2018-May-20 12:17N 13°06' E 080°18'0 0.0 180 / 61003.0 30.9
2018-May-20 08:47N 13°06' E 080°18'0 0.0 180 / 81003.5 31.7
2018-May-20 05:47N 13°06' E 080°18'0 0.0 180 / 61005.6 31.5
2018-May-20 03:17N 13°06' E 080°18'0 0.0 230 / 61005.6 32.1
2018-May-19 21:17N 13°06' E 080°18'0 0.0 220 / 41004.1 29.7
2018-May-19 18:17N 13°06' E 080°18'0 0.0 190 / 41005.3 29.4
2018-May-19 14:47N 13°06' E 080°18'0 0.0 180 / 61004.8 29.8
2018-May-19 12:17N 13°06' E 080°18'0 0.0 170 / 61002.6 31.0
2018-May-19 08:47N 13°06' E 080°18'0 0.0 180 / 81003.0 31.6
2018-May-19 05:47N 13°06' E 080°18'0 0.0 180 / 61004.8 31.5
2018-May-18 23:47N 13°06' E 080°18'0 0.0 210 / 41004.7 29.0
2018-May-18 21:17N 13°06' E 080°18'0 0.0 200 / 41004.3 29.5
2018-May-18 18:17N 13°06' E 080°18'0 0.0 200 / 61005.7 29.5
2018-May-18 15:17N 13°06' E 080°18'0 0.0 180 / 41005.6 29.8
2018-May-18 12:17N 13°06' E 080°18'0 0.0 180 / 41002.8 31.0
2018-May-18 08:47N 13°06' E 080°18'0 0.0 180 / 61003.9 31.5
2018-May-18 06:17N 13°06' E 080°18'0 0.0 190 / 81005.6 31.0
2018-May-18 03:17N 13°06' E 080°18'0 0.0 240 / 41006.5 31.3
2018-May-18 00:17N 13°06' E 080°18'0 0.0 210 / 21005.3 28.7
2018-May-17 21:17N 13°06' E 080°18'0 0.0 200 / 21005.1 29.6
2018-May-17 17:47N 13°06' E 080°18'0 0.0 190 / 61006.4 29.5
2018-May-17 12:17N 13°06' E 080°18'0 0.0 180 / 61003.7 31.3
2018-May-17 09:17N 13°06' E 080°18'0 0.0 180 / 81004.7 32.3
2018-May-17 06:17N 13°06' E 080°18'0 0.0 180 / 81006.1 31.2
2018-May-17 03:17N 13°06' E 080°18'0 0.0 180 / 61007.1 31.4
2018-May-17 00:17N 13°06' E 080°18'0 0.0 200 / 21005.4 28.8
2018-May-16 21:17N 13°06' E 080°18'0 0.0 190 / 21004.8 29.2
2018-May-16 15:17N 13°06' E 080°18'0 0.0 180 / 41005.8 29.8
2018-May-16 12:17N 13°06' E 080°18'0 0.0 180 / 81003.7 31.1
2018-May-16 09:17N 13°06' E 080°18'0 0.0 180 / 61004.6 32.0
2018-May-16 06:17N 13°06' E 080°18'0 0.0 180 / 81007.1 31.1
2018-May-16 03:17N 13°06' E 080°18'0 0.0 180 / 61007.4 31.6
2018-May-15 21:17N 13°06' E 080°18'0 0.0 240 / 21005.3 29.0
2018-May-15 18:17N 13°06' E 080°18'0 0.0 190 / 41006.4 29.4
2018-May-15 14:47N 13°06' E 080°18'0 0.0 170 / 41005.6 29.8
2018-May-15 12:17N 13°06' E 080°18'0 0.0 180 / 61004.5 30.6
2018-May-15 09:17N 13°06' E 080°18'0 0.0 160 / 41004.6 32.2
2018-May-15 06:17N 13°06' E 080°18'0 0.0 180 / 61007.7 32.0
2018-May-15 03:17N 13°06' E 080°18'0 0.0 260 / 41009.4 31.5
2018-May-15 00:17N 13°06' E 080°18'0 0.0 230 / 21007.0 29.0
2018-May-14 21:17N 13°06' E 080°18'0 0.0 230 / 21006.5 29.5
2018-May-14 18:17N 13°06' E 080°18'0 0.0 190 / 41008.2 29.6
2018-May-14 14:47N 13°06' E 080°18'0 0.0 170 / 41007.3 30.1
2018-May-14 12:17N 13°06' E 080°18'0 0.0 170 / 41005.1 31.6
2018-May-14 09:17N 13°06' E 080°18'0 0.0 160 / 61005.4 32.5
2018-May-14 06:17N 13°06' E 080°18'0 0.0 170 / 41008.6 32.2
2018-May-14 03:17N 13°06' E 080°18'0 0.0 230 / 61008.9 32.0
2018-May-14 00:17N 13°06' E 080°18'0 0.0 220 / 21007.1 28.7
2018-May-13 21:17N 13°06' E 080°18'0 0.0 220 / 41006.0 29.1
2018-May-13 17:47N 13°06' E 080°18'0 0.0 190 / 41008.0 29.2
2018-May-13 15:17N 13°06' E 080°18'0 0.0 190 / 41007.4 29.8
2018-May-13 12:17N 13°06' E 080°18'0 0.0 180 / 41005.2 30.5
2018-May-13 09:17N 13°06' E 080°18'0 0.0 180 / 61005.6 32.1
2018-May-13 06:17N 13°06' E 080°18'0 0.0 190 / 81007.6 32.3
2018-May-13 03:17N 13°06' E 080°18'0 0.0 220 / 61008.4 32.5
2018-May-13 00:17N 13°06' E 080°18'0 0.0 190 / 41006.3 29.2
2018-May-12 20:47N 13°06' E 080°18'0 0.0 200 / 41006.1 29.6
2018-May-12 17:47N 13°06' E 080°18'0 0.0 190 / 61007.7 29.5
2018-May-12 12:17N 13°06' E 080°18'0 0.0 180 / 81004.1 30.3
2018-May-12 09:17N 13°06' E 080°18'0 0.0 180 / 81005.2 32.1
2018-May-12 06:17N 13°06' E 080°18'0 0.0 180 / 101008.0 31.5
2018-May-12 03:17N 13°06' E 080°18'0 0.0 190 / 81009.2 30.9
2018-May-12 00:17N 13°06' E 080°18'0 0.0 190 / 61006.7 29.2
2018-May-11 21:17N 13°06' E 080°18'0 0.0 200 / 41006.3 29.7
2018-May-11 18:17N 13°06' E 080°18'0 0.0 190 / 61007.9 29.4
2018-May-11 15:17N 13°06' E 080°18'0 0.0 190 / 61006.7 29.5
2018-May-11 12:17N 13°06' E 080°18'0 0.0 180 / 81004.6 30.7
2018-May-11 06:17N 13°06' E 080°18'0 0.0 180 / 101008.3 30.9
2018-May-11 02:47N 13°06' E 080°18'0 0.0 200 / 41009.5 31.9
2018-May-11 00:17N 13°06' E 080°18'0 0.0 190 / 41007.7 29.0
2018-May-10 21:17N 13°06' E 080°18'0 0.0 190 / 61007.4 29.3
2018-May-10 18:17N 13°06' E 080°18'   190 / 61008.7 29.6

Dump ship's entire track history